TimeCST,TemperatureF,Dew PointF,Humidity,Sea Level PressureIn,VisibilityMPH,Wind Direction,Wind SpeedMPH,Gust SpeedMPH,PrecipitationIn,Events,Conditions,WindDirDegrees,DateUTC
12:54 AM,32.0,30.0,92,30.34,10.0,Calm,Calm,-,N/A,,Clear,0,2013-02-17 06:54:00
1:54 AM,32.0,28.9,88,30.33,10.0,Calm,Calm,-,N/A,,Clear,0,2013-02-17 07:54:00
2:54 AM,32.0,30.0,92,30.33,10.0,Calm,Calm,-,N/A,,Clear,0,2013-02-17 08:54:00
3:54 AM,32.0,30.0,92,30.32,10.0,Calm,Calm,-,N/A,,Clear,0,2013-02-17 09:54:00
4:54 AM,32.0,30.0,92,30.32,10.0,Calm,Calm,-,N/A,,Clear,0,2013-02-17 10:54:00
5:54 AM,32.0,30.0,92,30.34,10.0,Calm,Calm,-,N/A,,Clear,0,2013-02-17 11:54:00
6:54 AM,34.0,30.0,85,30.34,10.0,Calm,Calm,-,N/A,,Clear,0,2013-02-17 12:54:00
7:54 AM,42.1,30.0,62,30.35,10.0,Calm,Calm,-,N/A,,Clear,0,2013-02-17 13:54:00
8:54 AM,48.9,28.9,46,30.35,10.0,Variable,6.9,-,N/A,,Clear,0,2013-02-17 14:54:00
9:54 AM,54.0,33.1,45,30.35,10.0,Calm,Calm,-,N/A,,Clear,0,2013-02-17 15:54:00
10:54 AM,59.0,37.0,44,30.34,10.0,Variable,6.9,-,N/A,,Clear,0,2013-02-17 16:54:00
11:54 AM,63.0,37.9,40,30.31,10.0,Variable,6.9,-,N/A,,Clear,0,2013-02-17 17:54:00
12:54 PM,64.9,39.0,39,30.27,10.0,Variable,6.9,-,N/A,,Clear,0,2013-02-17 18:54:00
1:54 PM,66.9,39.0,36,30.23,10.0,Variable,4.6,-,N/A,,Clear,0,2013-02-17 19:54:00
2:54 PM,68.0,39.9,36,30.20,10.0,Variable,6.9,-,N/A,,Partly Cloudy,0,2013-02-17 20:54:00
3:54 PM,66.9,39.9,37,30.19,10.0,Variable,6.9,-,N/A,,Scattered Clouds,0,2013-02-17 21:54:00
4:54 PM,64.9,43.0,45,30.20,10.0,Variable,5.8,-,N/A,,Partly Cloudy,0,2013-02-17 22:54:00
5:54 PM,61.0,43.0,52,30.20,10.0,Variable,4.6,-,N/A,,Clear,0,2013-02-17 23:54:00
6:54 PM,57.9,42.1,56,30.21,10.0,Calm,Calm,-,N/A,,Clear,0,2013-02-18 00:54:00
7:54 PM,55.9,42.1,60,30.21,10.0,Variable,4.6,-,N/A,,Clear,0,2013-02-18 01:54:00
8:54 PM,54.0,42.1,64,30.22,10.0,Variable,3.5,-,N/A,,Clear,0,2013-02-18 02:54:00
9:54 PM,52.0,43.0,71,30.95,10.0,Calm,Calm,-,N/A,,Clear,0,2013-02-18 03:54:00
10:54 PM,52.0,44.1,74,30.22,10.0,Variable,3.5,-,N/A,,Clear,0,2013-02-18 04:54:00
11:54 PM,51.1,44.1,77,30.21,10.0,Calm,Calm,-,N/A,,Clear,0,2013-02-18 05:54:00